createdAt,value
2018-11-29T00:02:50.604Z,2.40
2018-11-29T00:05:54.622Z,2.40
2018-11-29T00:08:58.728Z,2.40
2018-11-29T00:12:02.724Z,2.30
2018-11-29T00:15:09.859Z,2.30
2018-11-29T00:18:13.863Z,2.30
2018-11-29T00:21:17.868Z,2.30
2018-11-29T00:24:21.874Z,2.30
2018-11-29T00:27:25.879Z,2.30
2018-11-29T00:30:29.903Z,2.30
2018-11-29T00:33:33.920Z,2.30
2018-11-29T00:36:38.014Z,2.40
2018-11-29T00:39:42.024Z,2.40
2018-11-29T00:42:46.046Z,2.40
2018-11-29T00:45:50.054Z,2.50
2018-11-29T00:48:54.063Z,2.50
2018-11-29T00:51:58.058Z,2.60
2018-11-29T00:55:02.083Z,2.60
2018-11-29T00:58:06.104Z,2.60
2018-11-29T01:01:10.115Z,2.60
2018-11-29T01:04:14.123Z,2.60
2018-11-29T01:07:18.122Z,2.60
2018-11-29T01:10:22.134Z,2.70
2018-11-29T01:13:26.142Z,2.60
2018-11-29T01:16:30.144Z,2.60
2018-11-29T01:19:34.161Z,2.60
2018-11-29T01:22:38.173Z,2.60
2018-11-29T01:25:42.174Z,2.60
2018-11-29T01:28:46.177Z,2.60
2018-11-29T01:31:50.181Z,2.50
2018-11-29T01:34:54.202Z,2.50
2018-11-29T01:37:58.207Z,2.60
2018-11-29T01:41:02.217Z,2.60
2018-11-29T01:44:06.596Z,2.60
2018-11-29T01:47:10.589Z,2.60
2018-11-29T01:50:14.599Z,2.50
2018-11-29T01:53:18.629Z,2.50
2018-11-29T01:56:22.622Z,2.50
2018-11-29T01:59:26.626Z,2.50
2018-11-29T02:02:30.623Z,2.40
2018-11-29T02:05:34.631Z,2.40
2018-11-29T02:08:38.638Z,2.40
2018-11-29T02:11:42.626Z,2.40
2018-11-29T02:14:46.641Z,2.40
2018-11-29T02:17:50.784Z,2.40
2018-11-29T02:20:54.776Z,2.40
2018-11-29T02:23:58.785Z,2.40
2018-11-29T02:27:02.792Z,2.40
2018-11-29T02:30:10.162Z,2.40
2018-11-29T02:33:14.164Z,2.50
2018-11-29T02:36:18.178Z,2.50
2018-11-29T04:44:01.408Z,2.10
2018-11-29T04:47:05.499Z,2.20
2018-11-29T04:50:09.498Z,2.10
2018-11-29T04:53:13.525Z,2.10
2018-11-29T04:56:17.541Z,2.10
2018-11-29T04:59:21.611Z,2.20
2018-11-29T05:02:25.648Z,2.20
2018-11-29T05:05:29.638Z,2.20
2018-11-29T05:08:33.651Z,2.20
2018-11-29T05:11:38.003Z,2.20
2018-11-29T05:14:41.987Z,2.20
2018-11-29T05:17:46.015Z,2.20
2018-11-29T05:20:50.014Z,2.20
2018-11-29T05:23:54.043Z,2.20
2018-11-29T05:26:58.068Z,2.30
2018-11-29T05:30:02.083Z,2.30
2018-11-29T05:33:06.100Z,2.40
2018-11-29T05:36:10.211Z,2.40
2018-11-29T05:39:14.770Z,2.40
2018-11-29T05:42:19.172Z,2.50
2018-11-29T05:45:23.830Z,2.50
2018-11-29T05:48:28.015Z,2.50
2018-11-29T05:51:32.031Z,2.50
2018-11-29T05:54:36.055Z,2.50
2018-11-29T05:57:40.067Z,2.50
2018-11-29T06:00:44.184Z,2.50
2018-11-29T06:03:48.195Z,2.50
2018-11-29T06:06:52.226Z,2.50
2018-11-29T06:09:56.278Z,2.50
2018-11-29T06:13:00.280Z,2.50
2018-11-29T06:16:04.363Z,2.40
2018-11-29T06:19:09.576Z,2.40
2018-11-29T06:22:13.600Z,2.40
2018-11-29T06:25:17.691Z,2.40
2018-11-29T06:28:21.733Z,2.30
2018-11-29T06:31:25.983Z,2.30
2018-11-29T06:34:29.999Z,2.30
2018-11-29T06:37:34.484Z,2.30
2018-11-29T06:40:38.482Z,2.30
2018-11-29T06:43:42.481Z,2.30
2018-11-29T06:46:46.469Z,2.40
2018-11-29T06:49:50.755Z,2.40
2018-11-29T06:52:55.162Z,2.40
2018-11-29T06:55:59.171Z,2.40
2018-11-29T06:59:03.366Z,2.30
2018-11-29T07:02:07.450Z,2.30
2018-11-29T07:05:11.571Z,2.20
2018-11-29T07:08:15.576Z,2.20
2018-11-29T07:11:19.587Z,2.10
2018-11-29T07:14:23.595Z,2.10
2018-11-29T07:17:27.630Z,2.10
2018-11-29T07:20:31.600Z,2.10
2018-11-29T07:23:35.602Z,2.10
2018-11-29T07:26:39.738Z,2.10
2018-11-29T07:29:43.746Z,2.20
2018-11-29T07:32:47.779Z,2.30
2018-11-29T07:35:51.770Z,2.30
2018-11-29T07:38:55.790Z,2.30
2018-11-29T07:41:59.790Z,2.30
2018-11-29T07:45:04.178Z,2.30
2018-11-29T07:48:08.178Z,2.30
2018-11-29T07:51:12.182Z,2.30
2018-11-29T07:54:16.305Z,2.30
2018-11-29T07:57:20.431Z,2.30
2018-11-29T08:00:24.394Z,2.30
2018-11-29T08:03:28.421Z,2.30
2018-11-29T08:06:32.406Z,2.40
2018-11-29T08:09:37.186Z,2.50
2018-11-29T08:12:41.192Z,2.40
2018-11-29T08:15:45.215Z,2.30
2018-11-29T08:18:49.198Z,2.30
2018-11-29T08:21:53.210Z,2.30
2018-11-29T08:24:57.354Z,2.30
2018-11-29T08:28:01.358Z,2.30
2018-11-29T08:31:05.594Z,2.20
2018-11-29T08:34:09.598Z,2.20
2018-11-29T08:37:13.621Z,2.20
2018-11-29T08:40:18.777Z,2.20
2018-11-29T08:43:22.816Z,2.20
2018-11-29T08:46:26.792Z,2.30
2018-11-29T08:49:30.792Z,2.40
2018-11-29T08:52:34.807Z,2.50
2018-11-29T08:55:38.794Z,2.70
2018-11-29T08:58:42.794Z,2.70
2018-11-29T09:01:46.798Z,2.80
2018-11-29T09:04:50.817Z,2.80
2018-11-29T09:07:54.840Z,2.90
2018-11-29T09:10:58.841Z,3.00
2018-11-29T09:14:03.471Z,3.00
2018-11-29T09:17:07.572Z,3.10
2018-11-29T09:20:13.510Z,3.20
2018-11-29T09:23:17.519Z,3.20
2018-11-29T09:26:21.555Z,3.30
2018-11-29T09:29:25.678Z,3.30
2018-11-29T09:32:29.663Z,3.40
2018-11-29T09:35:33.790Z,3.40
2018-11-29T09:38:37.986Z,3.50
2018-11-29T09:41:41.986Z,3.50
2018-11-29T09:44:46.012Z,3.60
2018-11-29T09:47:51.091Z,3.70
2018-11-29T09:50:55.098Z,3.70
2018-11-29T09:53:59.268Z,3.80
2018-11-29T09:57:03.268Z,3.90
2018-11-29T10:00:19.586Z,4.00
2018-11-29T10:03:23.702Z,4.10
2018-11-29T10:06:27.711Z,4.10
2018-11-29T10:09:31.714Z,4.10
2018-11-29T10:12:35.738Z,4.20
2018-11-29T10:15:39.739Z,4.30
2018-11-29T10:18:44.335Z,4.30
2018-11-29T10:21:48.330Z,4.40
2018-11-29T10:24:52.336Z,4.50
2018-11-29T10:27:58.106Z,4.60
2018-11-29T10:31:02.946Z,4.60
2018-11-29T10:34:07.001Z,4.70
2018-11-29T10:37:11.065Z,4.80
2018-11-29T10:40:15.110Z,4.80
2018-11-29T10:43:19.101Z,4.90
2018-11-29T10:46:24.094Z,5.00
2018-11-29T10:49:28.118Z,5.10
2018-11-29T10:52:32.180Z,5.20
2018-11-29T10:55:36.177Z,5.30
2018-11-29T10:58:40.178Z,5.40
2018-11-29T11:01:49.483Z,5.40
2018-11-29T11:04:53.507Z,5.40
2018-11-29T11:07:58.008Z,5.50
2018-11-29T11:11:05.962Z,5.50
2018-11-29T11:14:09.958Z,5.60
2018-11-29T11:17:15.110Z,5.70
2018-11-29T11:20:19.149Z,5.80
2018-11-29T11:23:23.143Z,5.90
2018-11-29T11:26:27.203Z,5.90
2018-11-29T11:29:31.163Z,6.00
2018-11-29T11:32:35.206Z,6.00
2018-11-29T11:35:39.204Z,6.10
2018-11-29T11:38:43.222Z,6.10
2018-11-29T11:41:47.205Z,6.20
2018-11-29T11:44:51.219Z,6.20
2018-11-29T11:47:55.253Z,6.30
2018-11-29T11:50:59.255Z,6.40
2018-11-29T11:54:03.256Z,6.40
2018-11-29T11:57:07.250Z,6.50
2018-11-29T12:00:15.451Z,6.50
2018-11-29T12:03:19.458Z,6.50
2018-11-29T12:06:23.478Z,6.50
2018-11-29T12:09:27.478Z,6.50
2018-11-29T12:12:31.488Z,6.60
2018-11-29T12:15:36.138Z,6.60
2018-11-29T12:18:40.153Z,6.70
2018-11-29T12:21:44.155Z,6.70
2018-11-29T12:24:48.229Z,6.70
2018-11-29T12:27:52.544Z,6.70
2018-11-29T12:30:56.535Z,6.70
2018-11-29T12:34:00.541Z,6.70
2018-11-29T12:37:04.746Z,6.70
2018-11-29T12:40:11.130Z,6.70
2018-11-29T12:43:15.126Z,6.70
2018-11-29T12:46:19.130Z,6.70
2018-11-29T12:49:23.119Z,6.70
2018-11-29T12:52:27.116Z,6.70
2018-11-29T12:55:31.131Z,6.80
2018-11-29T12:58:35.159Z,6.80
2018-11-29T13:01:39.170Z,6.80
2018-11-29T13:04:43.180Z,6.80
2018-11-29T13:07:47.166Z,6.80
2018-11-29T13:10:51.366Z,6.80
2018-11-29T13:13:55.409Z,6.90
2018-11-29T13:16:59.365Z,6.90
2018-11-29T13:20:03.419Z,6.90
2018-11-29T13:23:07.426Z,6.90
2018-11-29T13:26:11.435Z,6.90
2018-11-29T13:29:15.876Z,6.90
2018-11-29T13:32:20.118Z,6.90
2018-11-29T13:35:25.423Z,6.90
2018-11-29T13:38:29.440Z,6.90
2018-11-29T13:41:33.446Z,6.90
2018-11-29T13:44:37.442Z,6.90
2018-11-29T13:47:41.713Z,6.80
2018-11-29T13:50:45.713Z,6.80
2018-11-29T13:53:49.708Z,6.80
2018-11-29T13:56:53.711Z,6.80
2018-11-29T13:59:57.701Z,6.70
2018-11-29T14:03:04.732Z,6.70
2018-11-29T14:06:08.738Z,6.70
2018-11-29T14:09:12.741Z,6.60
2018-11-29T14:12:16.777Z,6.50
2018-11-29T14:15:23.048Z,6.50
2018-11-29T14:18:27.058Z,6.50
2018-11-29T14:21:32.059Z,6.40
2018-11-29T14:24:36.051Z,6.40
2018-11-29T14:27:40.639Z,6.30
2018-11-29T14:30:44.628Z,6.30
2018-11-29T14:33:48.630Z,6.20
2018-11-29T14:36:52.623Z,6.20
2018-11-29T14:39:56.635Z,6.10
2018-11-29T14:43:00.646Z,6.00
2018-11-29T14:46:04.910Z,6.00
2018-11-29T14:49:08.917Z,5.90
2018-11-29T14:52:12.918Z,5.80
2018-11-29T14:55:16.908Z,5.80
2018-11-29T14:58:20.915Z,5.80
2018-11-29T15:01:24.906Z,5.70
2018-11-29T15:04:29.021Z,5.70
2018-11-29T15:07:33.022Z,5.60
2018-11-29T15:10:37.754Z,5.60
2018-11-29T15:13:41.758Z,5.50
2018-11-29T15:16:45.770Z,5.50
2018-11-29T15:19:49.766Z,5.40
2018-11-29T15:22:53.797Z,5.40
2018-11-29T15:25:57.803Z,5.30
2018-11-29T15:29:01.918Z,5.30
2018-11-29T15:32:06.019Z,5.30
2018-11-29T15:35:10.030Z,5.20
2018-11-29T15:38:14.062Z,5.20
2018-11-29T15:41:18.273Z,5.20
2018-11-29T15:44:22.130Z,5.20
2018-11-29T15:47:26.146Z,5.10
2018-11-29T15:50:30.158Z,5.10
2018-11-29T15:53:34.173Z,5.00
2018-11-29T15:56:38.180Z,5.00
2018-11-29T15:59:42.194Z,5.00
2018-11-29T16:02:47.238Z,5.00
2018-11-29T16:05:51.272Z,5.00
2018-11-29T16:08:55.644Z,5.00
2018-11-29T16:11:59.693Z,5.00
2018-11-29T16:15:03.752Z,5.00
2018-11-29T16:18:07.755Z,5.00
2018-11-29T16:21:11.784Z,5.00
2018-11-29T16:24:16.247Z,5.00
2018-11-29T16:27:20.311Z,5.00
2018-11-29T16:30:57.731Z,4.90
2018-11-29T16:34:01.895Z,4.90
2018-11-29T16:37:06.386Z,4.90
2018-11-29T16:40:10.466Z,4.90
2018-11-29T16:43:14.477Z,4.90
2018-11-29T16:46:18.527Z,5.00
2018-11-29T16:49:22.598Z,4.90
2018-11-29T16:52:26.964Z,5.00
2018-11-29T16:55:30.974Z,5.00
2018-11-29T16:58:35.974Z,5.00
2018-11-29T17:01:40.626Z,5.00
2018-11-29T17:04:44.702Z,5.00
2018-11-29T17:07:48.844Z,5.00
2018-11-29T17:10:52.840Z,5.00
2018-11-29T17:13:57.860Z,5.00
2018-11-29T17:17:01.888Z,5.00
2018-11-29T17:20:09.323Z,5.00
2018-11-29T17:23:13.501Z,5.00
2018-11-29T17:26:17.478Z,5.00
2018-11-29T17:29:21.579Z,5.00
2018-11-29T17:32:25.571Z,5.00
2018-11-29T17:35:29.577Z,5.00
2018-11-29T17:38:33.607Z,4.90
2018-11-29T17:41:38.050Z,5.00
2018-11-29T17:44:42.167Z,5.00
2018-11-29T17:47:46.358Z,5.00
2018-11-29T17:50:50.388Z,4.90
2018-11-29T17:53:54.461Z,4.90
2018-11-29T17:56:58.474Z,4.90
2018-11-29T18:00:02.652Z,4.90
2018-11-29T18:03:07.491Z,4.80
2018-11-29T18:06:11.596Z,4.80
2018-11-29T18:09:16.443Z,4.80
2018-11-29T18:12:20.446Z,4.80
2018-11-29T18:15:26.063Z,4.80
2018-11-29T18:18:30.073Z,4.80
2018-11-29T18:21:34.075Z,4.70
2018-11-29T18:24:38.084Z,4.70
2018-11-29T18:27:44.544Z,4.70
2018-11-29T18:30:48.551Z,4.70
2018-11-29T18:33:52.546Z,4.70
2018-11-29T18:36:56.566Z,4.60
2018-11-29T18:40:00.570Z,4.60
2018-11-29T18:43:05.849Z,4.60
2018-11-29T18:46:09.867Z,4.70
2018-11-29T18:49:13.868Z,4.70
2018-11-29T18:52:17.884Z,4.60
2018-11-29T18:55:25.599Z,4.60
2018-11-29T18:58:29.599Z,4.60
2018-11-29T19:01:33.637Z,4.60
2018-11-29T19:04:37.638Z,4.70
2018-11-29T19:07:42.052Z,4.70
2018-11-29T19:10:45.998Z,4.70
2018-11-29T19:13:49.992Z,4.70
2018-11-29T19:16:54.002Z,4.70
2018-11-29T19:19:58.051Z,4.70
2018-11-29T19:23:02.054Z,4.80
2018-11-29T19:26:06.827Z,4.90
2018-11-29T19:29:10.765Z,4.90
2018-11-29T19:32:14.770Z,4.90
2018-11-29T19:35:18.785Z,4.90
2018-11-29T19:38:22.782Z,4.80
2018-11-29T19:41:26.799Z,4.80
2018-11-29T19:44:30.787Z,4.90
2018-11-29T19:47:34.803Z,4.90
2018-11-29T19:50:38.819Z,4.80
2018-11-29T19:53:42.826Z,4.80
2018-11-29T19:56:46.821Z,4.80
2018-11-29T19:59:50.838Z,4.80
2018-11-29T20:02:55.764Z,4.80
2018-11-29T20:05:59.775Z,4.70
2018-11-29T20:09:04.394Z,4.70
2018-11-29T20:12:08.394Z,4.70
2018-11-29T20:15:16.886Z,4.70
2018-11-29T20:18:20.887Z,4.80
2018-11-29T20:21:25.519Z,4.90
2018-11-29T20:24:29.554Z,4.80
2018-11-29T20:27:33.563Z,4.80
2018-11-29T20:30:37.563Z,4.80
2018-11-29T20:33:41.570Z,4.80
2018-11-29T20:36:45.568Z,4.80
2018-11-29T20:39:49.582Z,4.80
2018-11-29T20:42:54.899Z,4.80
2018-11-29T20:45:58.886Z,4.70
2018-11-29T20:49:02.899Z,4.70
2018-11-29T20:52:07.021Z,4.60
2018-11-29T20:55:20.078Z,4.60
2018-11-29T20:58:24.136Z,4.60
2018-11-29T21:01:28.138Z,4.50
2018-11-29T21:04:32.193Z,4.50
2018-11-29T21:07:37.266Z,4.40
2018-11-29T21:10:41.279Z,4.40
2018-11-29T21:13:45.286Z,4.40
2018-11-29T21:16:49.876Z,4.40
2018-11-29T21:19:53.893Z,4.40
2018-11-29T21:22:57.921Z,4.40
2018-11-29T21:26:01.943Z,4.30
2018-11-29T21:29:05.981Z,4.30
2018-11-29T21:32:09.959Z,4.30
2018-11-29T21:35:16.260Z,4.20
2018-11-29T21:38:21.179Z,4.20
2018-11-29T21:41:25.329Z,4.20
2018-11-29T21:44:29.385Z,4.20
2018-11-29T21:47:33.389Z,4.20
2018-11-29T21:50:37.414Z,4.20
2018-11-29T21:53:41.436Z,4.20
2018-11-29T21:56:45.438Z,4.20
2018-11-29T21:59:49.454Z,4.20
2018-11-29T22:02:57.318Z,4.10
2018-11-29T22:06:01.344Z,4.10
2018-11-29T22:09:06.567Z,4.10
2018-11-29T22:12:10.631Z,4.10
2018-11-29T22:15:14.642Z,4.10
2018-11-29T22:18:20.671Z,4.10
2018-11-29T22:21:24.677Z,4.10
2018-11-29T22:24:28.722Z,4.10
2018-11-29T22:27:32.742Z,4.10
2018-11-29T22:30:36.767Z,4.20
2018-11-29T22:33:40.786Z,4.20
2018-11-29T22:36:44.817Z,4.20
2018-11-29T22:39:48.850Z,4.20
2018-11-29T22:42:52.871Z,4.10
2018-11-29T22:45:56.914Z,4.10
2018-11-29T22:49:00.943Z,4.10
2018-11-29T22:52:05.231Z,4.00
2018-11-29T22:55:09.249Z,4.00
2018-11-29T22:58:13.247Z,4.00
2018-11-29T23:01:22.839Z,4.00
2018-11-29T23:04:26.834Z,3.90
2018-11-29T23:07:30.858Z,3.90
2018-11-29T23:10:34.886Z,3.90
2018-11-29T23:13:38.885Z,3.90
2018-11-29T23:16:42.898Z,3.90
2018-11-29T23:19:46.897Z,3.80
2018-11-29T23:22:50.910Z,3.80
2018-11-29T23:25:54.933Z,3.80
2018-11-29T23:28:58.929Z,3.80
2018-11-29T23:32:02.954Z,3.70
2018-11-29T23:35:06.967Z,3.70
2018-11-29T23:38:10.988Z,3.70
2018-11-29T23:41:15.014Z,3.60
2018-11-29T23:44:19.006Z,3.60
2018-11-29T23:47:23.022Z,3.60
2018-11-29T23:50:27.092Z,3.60
2018-11-29T23:53:31.095Z,3.60
2018-11-29T23:56:35.103Z,3.60
2018-11-29T23:59:39.103Z,3.60
